sensor_id;sensor_type;location;lat;lon;timestamp;pressure;altitude;pressure_sealevel;temperature;humidity
6853;BME280;3465;42.144;24.722;2024-03-17T00:00:22;100143.94;;;9.28;66.17
6853;BME280;3465;42.144;24.722;2024-03-17T00:02:52;100151.63;;;9.30;66.08
6853;BME280;3465;42.144;24.722;2024-03-17T00:05:18;100140.97;;;9.19;66.02
6853;BME280;3465;42.144;24.722;2024-03-17T00:07:44;100141.13;;;8.99;67.50
6853;BME280;3465;42.144;24.722;2024-03-17T00:10:09;100142.41;;;8.90;67.77
6853;BME280;3465;42.144;24.722;2024-03-17T00:12:36;100138.91;;;9.08;66.59
6853;BME280;3465;42.144;24.722;2024-03-17T00:15:02;100136.50;;;9.05;66.73
6853;BME280;3465;42.144;24.722;2024-03-17T00:17:28;100133.13;;;9.03;67.12
6853;BME280;3465;42.144;24.722;2024-03-17T00:19:53;100143.94;;;8.94;67.01
6853;BME280;3465;42.144;24.722;2024-03-17T00:22:19;100134.97;;;9.01;67.10
6853;BME280;3465;42.144;24.722;2024-03-17T00:24:45;100133.56;;;8.77;67.46
6853;BME280;3465;42.144;24.722;2024-03-17T00:27:11;100144.88;;;8.75;67.72
6853;BME280;3465;42.144;24.722;2024-03-17T00:29:37;100135.13;;;8.80;67.22
6853;BME280;3465;42.144;24.722;2024-03-17T00:32:04;100130.19;;;8.75;67.42
6853;BME280;3465;42.144;24.722;2024-03-17T00:34:29;100125.03;;;8.75;68.04
6853;BME280;3465;42.144;24.722;2024-03-17T00:36:55;100128.84;;;8.85;67.73
6853;BME280;3465;42.144;24.722;2024-03-17T00:39:20;100130.72;;;8.82;68.06
6853;BME280;3465;42.144;24.722;2024-03-17T00:41:46;100127.91;;;8.86;67.40
6853;BME280;3465;42.144;24.722;2024-03-17T00:44:11;100129.22;;;8.95;67.58
6853;BME280;3465;42.144;24.722;2024-03-17T00:46:37;100129.81;;;8.83;68.04
6853;BME280;3465;42.144;24.722;2024-03-17T00:49:03;100129.66;;;8.86;67.99
6853;BME280;3465;42.144;24.722;2024-03-17T00:51:33;100124.72;;;8.81;67.30
6853;BME280;3465;42.144;24.722;2024-03-17T00:53:59;100126.97;;;8.70;67.55
6853;BME280;3465;42.144;24.722;2024-03-17T00:56:24;100125.69;;;8.79;67.68
6853;BME280;3465;42.144;24.722;2024-03-17T00:58:50;100121.72;;;8.72;68.09
6853;BME280;3465;42.144;24.722;2024-03-17T01:01:17;100128.88;;;8.67;68.19
6853;BME280;3465;42.144;24.722;2024-03-17T01:03:42;100131.09;;;8.74;67.58
6853;BME280;3465;42.144;24.722;2024-03-17T01:06:08;100125.84;;;8.76;67.47
6853;BME280;3465;42.144;24.722;2024-03-17T01:08:34;100129.09;;;8.43;69.47
6853;BME280;3465;42.144;24.722;2024-03-17T01:10:59;100132.34;;;8.30;70.01
6853;BME280;3465;42.144;24.722;2024-03-17T01:13:25;100131.00;;;8.40;70.04
6853;BME280;3465;42.144;24.722;2024-03-17T01:15:53;100137.59;;;8.47;69.69
6853;BME280;3465;42.144;24.722;2024-03-17T01:18:19;100137.13;;;8.56;69.38
6853;BME280;3465;42.144;24.722;2024-03-17T01:20:44;100130.69;;;8.65;68.53
6853;BME280;3465;42.144;24.722;2024-03-17T01:23:11;100122.44;;;8.75;68.67
6853;BME280;3465;42.144;24.722;2024-03-17T01:25:36;100127.53;;;8.77;68.08
6853;BME280;3465;42.144;24.722;2024-03-17T01:28:06;100124.72;;;8.81;67.84
6853;BME280;3465;42.144;24.722;2024-03-17T01:30:32;100121.28;;;8.81;67.47
6853;BME280;3465;42.144;24.722;2024-03-17T01:32:58;100116.00;;;8.65;68.73
6853;BME280;3465;42.144;24.722;2024-03-17T01:35:27;100119.75;;;8.41;69.34
6853;BME280;3465;42.144;24.722;2024-03-17T01:37:52;100118.94;;;8.58;69.15
6853;BME280;3465;42.144;24.722;2024-03-17T01:40:18;100114.78;;;8.55;68.72
6853;BME280;3465;42.144;24.722;2024-03-17T01:42:44;100114.63;;;8.39;68.84
6853;BME280;3465;42.144;24.722;2024-03-17T01:45:31;100091.63;;;8.15;69.64
6853;BME280;3465;42.144;24.722;2024-03-17T01:47:59;100117.38;;;8.36;69.89
6853;BME280;3465;42.144;24.722;2024-03-17T01:50:35;100121.41;;;8.42;69.00
6853;BME280;3465;42.144;24.722;2024-03-17T01:53:03;100119.41;;;8.30;70.14
6853;BME280;3465;42.144;24.722;2024-03-17T01:55:36;100128.34;;;8.23;70.22
6853;BME280;3465;42.144;24.722;2024-03-17T01:58:03;100123.41;;;8.37;69.59
6853;BME280;3465;42.144;24.722;2024-03-17T02:00:32;100119.38;;;8.48;68.88
6853;BME280;3465;42.144;24.722;2024-03-17T02:02:59;100113.94;;;8.36;69.29
6853;BME280;3465;42.144;24.722;2024-03-17T02:05:26;100115.91;;;8.31;70.12
6853;BME280;3465;42.144;24.722;2024-03-17T02:07:52;100118.78;;;8.23;70.12
6853;BME280;3465;42.144;24.722;2024-03-17T02:10:17;100109.03;;;8.30;70.00
6853;BME280;3465;42.144;24.722;2024-03-17T02:12:43;100117.38;;;8.36;70.33
6853;BME280;3465;42.144;24.722;2024-03-17T02:15:09;100112.31;;;8.33;70.47
6853;BME280;3465;42.144;24.722;2024-03-17T02:17:34;100109.69;;;8.35;70.39
6853;BME280;3465;42.144;24.722;2024-03-17T02:20:00;100118.16;;;8.56;70.35
6853;BME280;3465;42.144;24.722;2024-03-17T02:22:26;100111.59;;;8.67;69.55
6853;BME280;3465;42.144;24.722;2024-03-17T02:24:53;100110.88;;;8.64;69.30
6853;BME280;3465;42.144;24.722;2024-03-17T02:27:19;100116.69;;;8.69;69.06
6853;BME280;3465;42.144;24.722;2024-03-17T02:29:44;100111.13;;;8.76;69.28
6853;BME280;3465;42.144;24.722;2024-03-17T02:32:11;100119.38;;;8.48;69.51
6853;BME280;3465;42.144;24.722;2024-03-17T02:34:37;100105.50;;;8.68;69.25
6853;BME280;3465;42.144;24.722;2024-03-17T02:37:05;100115.63;;;8.73;69.19
6853;BME280;3465;42.144;24.722;2024-03-17T02:39:33;100107.59;;;8.60;69.07
6853;BME280;3465;42.144;24.722;2024-03-17T02:42:07;100115.34;;;8.43;69.54
6853;BME280;3465;42.144;24.722;2024-03-17T02:44:34;100115.75;;;8.34;70.64
6853;BME280;3465;42.144;24.722;2024-03-17T02:47:02;100110.50;;;8.35;70.04
6853;BME280;3465;42.144;24.722;2024-03-17T02:49:29;100115.63;;;8.37;70.71
6853;BME280;3465;42.144;24.722;2024-03-17T02:52:06;100119.13;;;8.36;70.89
6853;BME280;3465;42.144;24.722;2024-03-17T02:54:35;100117.78;;;8.46;69.60
6853;BME280;3465;42.144;24.722;2024-03-17T02:57:01;100112.19;;;8.55;69.87
6853;BME280;3465;42.144;24.722;2024-03-17T02:59:26;100109.44;;;8.39;69.20
6853;BME280;3465;42.144;24.722;2024-03-17T03:01:52;100114.25;;;8.10;70.14
6853;BME280;3465;42.144;24.722;2024-03-17T03:04:18;100119.38;;;7.93;71.82
6853;BME280;3465;42.144;24.722;2024-03-17T03:06:43;100114.19;;;7.93;71.94
6853;BME280;3465;42.144;24.722;2024-03-17T03:09:09;100120.34;;;7.90;72.29
6853;BME280;3465;42.144;24.722;2024-03-17T03:11:42;100129.34;;;7.82;72.39
6853;BME280;3465;42.144;24.722;2024-03-17T03:14:08;100111.81;;;7.88;72.09
6853;BME280;3465;42.144;24.722;2024-03-17T03:16:33;100112.78;;;7.86;71.72
6853;BME280;3465;42.144;24.722;2024-03-17T03:18:59;100111.50;;;7.76;72.73
6853;BME280;3465;42.144;24.722;2024-03-17T03:21:25;100118.50;;;7.74;72.87
6853;BME280;3465;42.144;24.722;2024-03-17T03:23:51;100116.81;;;7.73;72.85
6853;BME280;3465;42.144;24.722;2024-03-17T03:26:17;100121.09;;;7.92;71.67
6853;BME280;3465;42.144;24.722;2024-03-17T03:28:43;100128.28;;;7.86;71.44
6853;BME280;3465;42.144;24.722;2024-03-17T03:31:12;100124.63;;;7.71;72.11
6853;BME280;3465;42.144;24.722;2024-03-17T03:33:42;100130.72;;;7.70;71.99
6853;BME280;3465;42.144;24.722;2024-03-17T03:36:12;100114.44;;;7.68;72.05
6853;BME280;3465;42.144;24.722;2024-03-17T03:38:38;100122.09;;;7.69;72.48
6853;BME280;3465;42.144;24.722;2024-03-17T03:41:12;100125.22;;;7.57;72.19
6853;BME280;3465;42.144;24.722;2024-03-17T03:43:38;100124.97;;;7.43;72.56
6853;BME280;3465;42.144;24.722;2024-03-17T03:46:04;100131.59;;;7.50;71.87
6853;BME280;3465;42.144;24.722;2024-03-17T03:48:30;100117.88;;;7.48;71.94
6853;BME280;3465;42.144;24.722;2024-03-17T03:50:55;100125.56;;;7.50;71.71
6853;BME280;3465;42.144;24.722;2024-03-17T03:53:21;100135.25;;;7.45;72.25
6853;BME280;3465;42.144;24.722;2024-03-17T03:55:47;100141.00;;;7.31;72.62
6853;BME280;3465;42.144;24.722;2024-03-17T03:58:14;100130.81;;;7.28;73.16
6853;BME280;3465;42.144;24.722;2024-03-17T04:00:39;100142.22;;;7.23;73.42
6853;BME280;3465;42.144;24.722;2024-03-17T04:03:05;100144.22;;;7.16;73.33
6853;BME280;3465;42.144;24.722;2024-03-17T04:05:31;100145.50;;;7.06;74.41
6853;BME280;3465;42.144;24.722;2024-03-17T04:07:57;100130.84;;;7.07;73.79
6853;BME280;3465;42.144;24.722;2024-03-17T04:10:23;100141.41;;;7.22;73.68
6853;BME280;3465;42.144;24.722;2024-03-17T04:12:50;100147.19;;;7.27;73.19
6853;BME280;3465;42.144;24.722;2024-03-17T04:15:16;100146.69;;;7.19;73.76
6853;BME280;3465;42.144;24.722;2024-03-17T04:17:42;100144.03;;;7.21;72.84
6853;BME280;3465;42.144;24.722;2024-03-17T04:20:08;100149.44;;;7.15;73.00
6853;BME280;3465;42.144;24.722;2024-03-17T04:22:36;100143.22;;;6.99;74.40
6853;BME280;3465;42.144;24.722;2024-03-17T04:25:02;100149.38;;;6.96;74.13
6853;BME280;3465;42.144;24.722;2024-03-17T04:27:29;100154.47;;;6.98;73.38
6853;BME280;3465;42.144;24.722;2024-03-17T04:29:57;100152.91;;;6.94;73.19
6853;BME280;3465;42.144;24.722;2024-03-17T04:32:24;100161.53;;;6.93;73.39
6853;BME280;3465;42.144;24.722;2024-03-17T04:34:50;100164.38;;;7.08;72.50
6853;BME280;3465;42.144;24.722;2024-03-17T04:37:15;100165.25;;;7.07;72.70
6853;BME280;3465;42.144;24.722;2024-03-17T04:39:43;100166.03;;;7.09;72.68
6853;BME280;3465;42.144;24.722;2024-03-17T04:42:09;100174.34;;;6.96;73.52
6853;BME280;3465;42.144;24.722;2024-03-17T04:44:35;100181.06;;;7.00;73.09
6853;BME280;3465;42.144;24.722;2024-03-17T04:47:01;100178.06;;;7.10;72.80
6853;BME280;3465;42.144;24.722;2024-03-17T04:49:27;100178.34;;;7.24;72.00
6853;BME280;3465;42.144;24.722;2024-03-17T04:51:53;100192.91;;;7.25;72.53
6853;BME280;3465;42.144;24.722;2024-03-17T04:54:18;100181.34;;;7.14;73.31
6853;BME280;3465;42.144;24.722;2024-03-17T04:56:44;100187.91;;;7.22;72.01
6853;BME280;3465;42.144;24.722;2024-03-17T04:59:09;100184.84;;;7.33;71.63
6853;BME280;3465;42.144;24.722;2024-03-17T05:01:35;100187.06;;;7.42;71.28
6853;BME280;3465;42.144;24.722;2024-03-17T05:04:04;100187.78;;;7.45;70.88
6853;BME280;3465;42.144;24.722;2024-03-17T05:06:30;100194.22;;;7.35;72.12
6853;BME280;3465;42.144;24.722;2024-03-17T05:08:56;100198.84;;;7.07;73.21
6853;BME280;3465;42.144;24.722;2024-03-17T05:11:21;100201.78;;;7.20;72.48
6853;BME280;3465;42.144;24.722;2024-03-17T05:13:49;100201.63;;;7.23;73.35
6853;BME280;3465;42.144;24.722;2024-03-17T05:16:15;100207.31;;;7.31;72.62
6853;BME280;3465;42.144;24.722;2024-03-17T05:18:41;100203.03;;;7.51;71.70
6853;BME280;3465;42.144;24.722;2024-03-17T05:21:07;100202.19;;;7.71;71.25
6853;BME280;3465;42.144;24.722;2024-03-17T05:23:36;100214.72;;;7.80;71.46
6853;BME280;3465;42.144;24.722;2024-03-17T05:26:03;100207.69;;;7.84;70.50
6853;BME280;3465;42.144;24.722;2024-03-17T05:28:32;100201.97;;;7.96;70.51
6853;BME280;3465;42.144;24.722;2024-03-17T05:30:58;100210.06;;;8.08;70.31
6853;BME280;3465;42.144;24.722;2024-03-17T05:33:25;100218.16;;;8.01;71.16
6853;BME280;3465;42.144;24.722;2024-03-17T05:35:52;100218.34;;;7.96;71.01
6853;BME280;3465;42.144;24.722;2024-03-17T05:38:23;100216.00;;;8.30;70.16
6853;BME280;3465;42.144;24.722;2024-03-17T05:40:56;100208.31;;;8.09;70.68
6853;BME280;3465;42.144;24.722;2024-03-17T05:43:30;100222.31;;;8.23;69.85
6853;BME280;3465;42.144;24.722;2024-03-17T05:46:03;100225.72;;;8.24;70.61
6853;BME280;3465;42.144;24.722;2024-03-17T05:48:29;100220.81;;;8.38;69.78
6853;BME280;3465;42.144;24.722;2024-03-17T05:50:56;100219.38;;;7.92;71.20
6853;BME280;3465;42.144;24.722;2024-03-17T05:53:22;100218.94;;;7.83;71.79
6853;BME280;3465;42.144;24.722;2024-03-17T05:55:51;100229.66;;;7.74;72.57
6853;BME280;3465;42.144;24.722;2024-03-17T05:58:17;100229.53;;;7.77;72.34
6853;BME280;3465;42.144;24.722;2024-03-17T06:00:42;100228.28;;;7.65;72.94
6853;BME280;3465;42.144;24.722;2024-03-17T06:03:09;100225.66;;;8.07;72.05
6853;BME280;3465;42.144;24.722;2024-03-17T06:05:35;100234.72;;;8.35;70.55
6853;BME280;3465;42.144;24.722;2024-03-17T06:08:02;100236.34;;;8.38;71.23
6853;BME280;3465;42.144;24.722;2024-03-17T06:10:29;100233.84;;;8.36;71.46
6853;BME280;3465;42.144;24.722;2024-03-17T06:12:56;100239.44;;;8.46;70.86
6853;BME280;3465;42.144;24.722;2024-03-17T06:15:23;100241.84;;;8.69;70.07
6853;BME280;3465;42.144;24.722;2024-03-17T06:17:49;100242.94;;;9.01;68.85
6853;BME280;3465;42.144;24.722;2024-03-17T06:20:14;100241.78;;;9.06;68.65
6853;BME280;3465;42.144;24.722;2024-03-17T06:22:41;100223.84;;;9.02;68.35
6853;BME280;3465;42.144;24.722;2024-03-17T06:25:07;100238.50;;;9.38;67.89
6853;BME280;3465;42.144;24.722;2024-03-17T06:27:32;100242.16;;;9.69;66.81
6853;BME280;3465;42.144;24.722;2024-03-17T06:30:01;100235.53;;;9.97;65.44
6853;BME280;3465;42.144;24.722;2024-03-17T06:32:30;100242.00;;;10.23;64.87
6853;BME280;3465;42.144;24.722;2024-03-17T06:35:01;100252.47;;;10.54;63.68
6853;BME280;3465;42.144;24.722;2024-03-17T06:37:27;100254.47;;;10.65;63.43
6853;BME280;3465;42.144;24.722;2024-03-17T06:39:52;100248.16;;;10.53;63.52
6853;BME280;3465;42.144;24.722;2024-03-17T06:42:18;100260.31;;;10.53;63.82
6853;BME280;3465;42.144;24.722;2024-03-17T06:44:44;100258.22;;;10.59;63.52
6853;BME280;3465;42.144;24.722;2024-03-17T06:47:09;100262.16;;;10.51;62.61
6853;BME280;3465;42.144;24.722;2024-03-17T06:49:35;100264.59;;;10.54;62.26
6853;BME280;3465;42.144;24.722;2024-03-17T06:52:00;100259.03;;;10.92;61.29
6853;BME280;3465;42.144;24.722;2024-03-17T06:54:26;100262.38;;;11.10;60.53
6853;BME280;3465;42.144;24.722;2024-03-17T06:56:52;100258.72;;;11.44;59.82
6853;BME280;3465;42.144;24.722;2024-03-17T06:59:17;100256.72;;;11.33;59.75
6853;BME280;3465;42.144;24.722;2024-03-17T07:01:43;100256.50;;;11.52;59.47
6853;BME280;3465;42.144;24.722;2024-03-17T07:04:10;100255.22;;;11.74;59.35
6853;BME280;3465;42.144;24.722;2024-03-17T07:06:36;100248.97;;;12.07;58.15
6853;BME280;3465;42.144;24.722;2024-03-17T07:09:02;100255.03;;;12.21;57.59
6853;BME280;3465;42.144;24.722;2024-03-17T07:11:27;100268.88;;;12.36;57.70
6853;BME280;3465;42.144;24.722;2024-03-17T07:13:53;100264.03;;;12.58;56.78
6853;BME280;3465;42.144;24.722;2024-03-17T07:16:19;100253.13;;;12.94;57.02
6853;BME280;3465;42.144;24.722;2024-03-17T07:18:47;100254.84;;;13.48;53.61
6853;BME280;3465;42.144;24.722;2024-03-17T07:21:12;100261.63;;;14.02;52.76
6853;BME280;3465;42.144;24.722;2024-03-17T07:23:38;100256.72;;;14.10;52.12
6853;BME280;3465;42.144;24.722;2024-03-17T07:26:04;100259.97;;;14.52;50.28
6853;BME280;3465;42.144;24.722;2024-03-17T07:28:30;100252.63;;;14.19;50.86
6853;BME280;3465;42.144;24.722;2024-03-17T07:30:58;100256.00;;;14.33;52.19
6853;BME280;3465;42.144;24.722;2024-03-17T07:33:26;100253.81;;;14.53;50.94
6853;BME280;3465;42.144;24.722;2024-03-17T07:35:56;100259.75;;;14.17;50.52
6853;BME280;3465;42.144;24.722;2024-03-17T07:38:23;100252.91;;;13.64;53.54
6853;BME280;3465;42.144;24.722;2024-03-17T07:41:02;100254.47;;;13.79;52.80
6853;BME280;3465;42.144;24.722;2024-03-17T07:43:29;100248.19;;;13.69;52.34
6853;BME280;3465;42.144;24.722;2024-03-17T07:46:04;100260.34;;;13.95;52.02
6853;BME280;3465;42.144;24.722;2024-03-17T07:48:32;100253.47;;;14.19;51.39
6853;BME280;3465;42.144;24.722;2024-03-17T07:51:02;100247.56;;;14.30;50.81
6853;BME280;3465;42.144;24.722;2024-03-17T07:53:30;100249.22;;;14.18;50.77
6853;BME280;3465;42.144;24.722;2024-03-17T07:56:03;100243.56;;;14.12;50.21
6853;BME280;3465;42.144;24.722;2024-03-17T07:58:29;100246.69;;;14.17;51.01
6853;BME280;3465;42.144;24.722;2024-03-17T08:00:59;100238.53;;;14.21;51.48
6853;BME280;3465;42.144;24.722;2024-03-17T08:03:27;100235.91;;;14.21;50.89
6853;BME280;3465;42.144;24.722;2024-03-17T08:05:52;100239.41;;;14.34;50.83
6853;BME280;3465;42.144;24.722;2024-03-17T08:08:19;100236.88;;;14.20;52.10
6853;BME280;3465;42.144;24.722;2024-03-17T08:10:44;100234.16;;;14.09;51.83
6853;BME280;3465;42.144;24.722;2024-03-17T08:13:13;100236.03;;;13.82;52.06
6853;BME280;3465;42.144;24.722;2024-03-17T08:15:42;100223.28;;;13.90;52.08
6853;BME280;3465;42.144;24.722;2024-03-17T08:18:08;100231.03;;;14.04;51.65
6853;BME280;3465;42.144;24.722;2024-03-17T08:20:38;100240.31;;;14.08;51.59
6853;BME280;3465;42.144;24.722;2024-03-17T08:23:05;100234.47;;;13.92;51.93
6853;BME280;3465;42.144;24.722;2024-03-17T08:25:34;100239.22;;;13.73;51.98
6853;BME280;3465;42.144;24.722;2024-03-17T08:28:00;100223.91;;;13.94;51.70
6853;BME280;3465;42.144;24.722;2024-03-17T08:30:26;100234.25;;;14.08;52.03
6853;BME280;3465;42.144;24.722;2024-03-17T08:32:52;100224.84;;;14.18;52.04
6853;BME280;3465;42.144;24.722;2024-03-17T08:35:17;100229.25;;;14.43;51.60
6853;BME280;3465;42.144;24.722;2024-03-17T08:37:43;100218.44;;;14.72;50.71
6853;BME280;3465;42.144;24.722;2024-03-17T08:40:09;100217.28;;;15.00;50.61
6853;BME280;3465;42.144;24.722;2024-03-17T08:42:36;100217.13;;;15.14;50.68
6853;BME280;3465;42.144;24.722;2024-03-17T08:45:01;100216.06;;;14.93;49.83
6853;BME280;3465;42.144;24.722;2024-03-17T08:47:28;100210.00;;;15.16;50.19
6853;BME280;3465;42.144;24.722;2024-03-17T08:49:54;100213.66;;;14.90;50.81
6853;BME280;3465;42.144;24.722;2024-03-17T08:52:19;100210.72;;;15.76;48.71
6853;BME280;3465;42.144;24.722;2024-03-17T08:54:47;100205.34;;;16.24;47.08
6853;BME280;3465;42.144;24.722;2024-03-17T08:57:13;100199.94;;;16.36;46.11
6853;BME280;3465;42.144;24.722;2024-03-17T08:59:39;100200.59;;;16.62;46.29
6853;BME280;3465;42.144;24.722;2024-03-17T09:02:05;100201.13;;;16.76;46.08
6853;BME280;3465;42.144;24.722;2024-03-17T09:04:31;100189.59;;;16.57;46.27
6853;BME280;3465;42.144;24.722;2024-03-17T09:06:57;100195.34;;;17.05;44.63
6853;BME280;3465;42.144;24.722;2024-03-17T09:09:22;100189.84;;;17.39;44.32
6853;BME280;3465;42.144;24.722;2024-03-17T09:11:48;100187.59;;;17.35;43.79
6853;BME280;3465;42.144;24.722;2024-03-17T09:14:16;100186.53;;;17.06;44.71
6853;BME280;3465;42.144;24.722;2024-03-17T09:16:42;100175.88;;;17.39;43.85
6853;BME280;3465;42.144;24.722;2024-03-17T09:19:08;100181.75;;;17.63;45.30
6853;BME280;3465;42.144;24.722;2024-03-17T09:21:34;100185.44;;;18.52;41.59
6853;BME280;3465;42.144;24.722;2024-03-17T09:23:59;100174.53;;;18.67;40.89
6853;BME280;3465;42.144;24.722;2024-03-17T09:26:25;100171.66;;;18.98;39.76
6853;BME280;3465;42.144;24.722;2024-03-17T09:28:50;100179.56;;;18.89;39.60
6853;BME280;3465;42.144;24.722;2024-03-17T09:31:16;100179.28;;;18.42;40.37
6853;BME280;3465;42.144;24.722;2024-03-17T09:33:41;100169.09;;;18.59;40.33
6853;BME280;3465;42.144;24.722;2024-03-17T09:36:08;100167.47;;;18.67;40.71
6853;BME280;3465;42.144;24.722;2024-03-17T09:38:38;100167.03;;;18.62;40.21
6853;BME280;3465;42.144;24.722;2024-03-17T09:41:06;100161.69;;;18.73;39.06
6853;BME280;3465;42.144;24.722;2024-03-17T09:43:35;100156.97;;;18.86;39.81
6853;BME280;3465;42.144;24.722;2024-03-17T09:46:04;100154.88;;;18.71;39.55
6853;BME280;3465;42.144;24.722;2024-03-17T09:48:31;100157.34;;;18.63;40.78
6853;BME280;3465;42.144;24.722;2024-03-17T09:51:03;100145.94;;;19.11;38.38
6853;BME280;3465;42.144;24.722;2024-03-17T09:53:30;100145.59;;;18.86;39.08
6853;BME280;3465;42.144;24.722;2024-03-17T09:56:03;100139.53;;;18.85;39.25
6853;BME280;3465;42.144;24.722;2024-03-17T09:58:31;100137.03;;;19.22;38.83
6853;BME280;3465;42.144;24.722;2024-03-17T10:00:56;100136.06;;;19.42;37.81
6853;BME280;3465;42.144;24.722;2024-03-17T10:03:41;100132.59;;;19.22;38.42
6853;BME280;3465;42.144;24.722;2024-03-17T10:06:08;100140.63;;;19.69;37.26
6853;BME280;3465;42.144;24.722;2024-03-17T10:08:57;100126.19;;;20.09;37.08
6853;BME280;3465;42.144;24.722;2024-03-17T10:11:24;100132.16;;;19.65;37.96
6853;BME280;3465;42.144;24.722;2024-03-17T10:16:30;100121.09;;;19.04;38.12
6853;BME280;3465;42.144;24.722;2024-03-17T10:21:44;100123.88;;;19.03;38.51
6853;BME280;3465;42.144;24.722;2024-03-17T10:24:24;100119.47;;;19.42;37.01
6853;BME280;3465;42.144;24.722;2024-03-17T10:26:54;100119.03;;;19.56;37.11
6853;BME280;3465;42.144;24.722;2024-03-17T10:29:34;100107.91;;;19.98;37.01
6853;BME280;3465;42.144;24.722;2024-03-17T10:32:05;100105.63;;;20.13;37.37
6853;BME280;3465;42.144;24.722;2024-03-17T10:34:38;100105.38;;;20.61;35.27
6853;BME280;3465;42.144;24.722;2024-03-17T10:37:17;100104.50;;;20.52;35.95
6853;BME280;3465;42.144;24.722;2024-03-17T10:39:46;100099.44;;;20.59;35.83
6853;BME280;3465;42.144;24.722;2024-03-17T10:42:13;100100.44;;;20.93;35.25
6853;BME280;3465;42.144;24.722;2024-03-17T10:44:43;100092.69;;;21.27;34.31
6853;BME280;3465;42.144;24.722;2024-03-17T10:47:22;100084.53;;;21.46;33.47
6853;BME280;3465;42.144;24.722;2024-03-17T10:49:49;100089.44;;;21.58;33.71
6853;BME280;3465;42.144;24.722;2024-03-17T10:52:16;100091.22;;;21.58;32.90
6853;BME280;3465;42.144;24.722;2024-03-17T10:54:53;100092.03;;;21.50;33.33
6853;BME280;3465;42.144;24.722;2024-03-17T11:00:04;100076.88;;;21.60;33.25
6853;BME280;3465;42.144;24.722;2024-03-17T11:02:35;100081.72;;;21.91;32.54
6853;BME280;3465;42.144;24.722;2024-03-17T11:07:46;100076.09;;;21.17;33.74
6853;BME280;3465;42.144;24.722;2024-03-17T11:10:20;100070.22;;;20.43;33.91
6853;BME280;3465;42.144;24.722;2024-03-17T11:12:54;100065.66;;;20.17;34.49
6853;BME280;3465;42.144;24.722;2024-03-17T11:20:37;100050.31;;;21.36;32.70
6853;BME280;3465;42.144;24.722;2024-03-17T11:23:04;100054.00;;;20.82;31.82
6853;BME280;3465;42.144;24.722;2024-03-17T11:25:36;100046.88;;;20.48;32.93
6853;BME280;3465;42.144;24.722;2024-03-17T11:28:04;100042.72;;;20.45;33.01
6853;BME280;3465;42.144;24.722;2024-03-17T11:39:03;100034.66;;;20.82;34.04
6853;BME280;3465;42.144;24.722;2024-03-17T11:41:37;100035.47;;;21.18;32.03
6853;BME280;3465;42.144;24.722;2024-03-17T11:46:57;100031.06;;;21.52;32.74
6853;BME280;3465;42.144;24.722;2024-03-17T11:49:28;100025.50;;;21.55;32.17
6853;BME280;3465;42.144;24.722;2024-03-17T11:52:01;100027.63;;;21.59;30.95
6853;BME280;3465;42.144;24.722;2024-03-17T11:54:40;100023.03;;;21.10;33.10
6853;BME280;3465;42.144;24.722;2024-03-17T11:57:08;100022.22;;;21.10;31.37
6853;BME280;3465;42.144;24.722;2024-03-17T11:59:35;100008.63;;;21.56;31.53
6853;BME280;3465;42.144;24.722;2024-03-17T12:02:01;100008.84;;;21.62;29.33
6853;BME280;3465;42.144;24.722;2024-03-17T12:04:29;99996.16;;;21.74;30.13
6853;BME280;3465;42.144;24.722;2024-03-17T12:06:58;99996.16;;;22.24;31.24
6853;BME280;3465;42.144;24.722;2024-03-17T12:09:26;99995.91;;;21.85;30.45
6853;BME280;3465;42.144;24.722;2024-03-17T12:12:04;100000.69;;;21.22;31.13
6853;BME280;3465;42.144;24.722;2024-03-17T12:14:31;99991.44;;;21.85;30.11
6853;BME280;3465;42.144;24.722;2024-03-17T12:17:01;99994.06;;;21.52;30.45
6853;BME280;3465;42.144;24.722;2024-03-17T12:19:27;99994.09;;;21.94;28.56
6853;BME280;3465;42.144;24.722;2024-03-17T12:21:55;99991.44;;;21.85;28.42
6853;BME280;3465;42.144;24.722;2024-03-17T12:24:32;99986.16;;;21.94;29.14
6853;BME280;3465;42.144;24.722;2024-03-17T12:26:59;99979.50;;;22.23;27.66
6853;BME280;3465;42.144;24.722;2024-03-17T12:29:31;99976.84;;;22.15;27.24
6853;BME280;3465;42.144;24.722;2024-03-17T12:32:04;99990.75;;;22.33;27.04
6853;BME280;3465;42.144;24.722;2024-03-17T12:34:33;99982.44;;;22.12;25.83
6853;BME280;3465;42.144;24.722;2024-03-17T12:37:02;99981.81;;;22.26;27.31
6853;BME280;3465;42.144;24.722;2024-03-17T12:39:33;99971.94;;;22.60;26.48
6853;BME280;3465;42.144;24.722;2024-03-17T12:42:08;99968.59;;;22.42;26.18
6853;BME280;3465;42.144;24.722;2024-03-17T12:44:48;99969.44;;;22.43;26.39
6853;BME280;3465;42.144;24.722;2024-03-17T12:47:24;99964.84;;;22.61;26.23
6853;BME280;3465;42.144;24.722;2024-03-17T12:49:52;99949.78;;;22.70;25.63
6853;BME280;3465;42.144;24.722;2024-03-17T12:52:21;99956.72;;;22.71;26.78
6853;BME280;3465;42.144;24.722;2024-03-17T12:55:07;99945.16;;;22.63;25.56
6853;BME280;3465;42.144;24.722;2024-03-17T12:58:11;99946.41;;;22.11;26.92
6853;BME280;3465;42.144;24.722;2024-03-17T13:01:02;99950.06;;;21.09;25.88
6853;BME280;3465;42.144;24.722;2024-03-17T13:03:37;99945.69;;;20.57;25.91
6853;BME280;3465;42.144;24.722;2024-03-17T13:06:05;99941.94;;;20.59;26.82
6853;BME280;3465;42.144;24.722;2024-03-17T13:08:32;99931.38;;;20.59;26.59
6853;BME280;3465;42.144;24.722;2024-03-17T13:10:58;99938.53;;;20.67;26.88
6853;BME280;3465;42.144;24.722;2024-03-17T13:13:24;99929.59;;;20.42;28.21
6853;BME280;3465;42.144;24.722;2024-03-17T13:15:50;99922.94;;;20.20;28.12
6853;BME280;3465;42.144;24.722;2024-03-17T13:18:17;99929.63;;;19.97;28.26
6853;BME280;3465;42.144;24.722;2024-03-17T13:20:47;99922.63;;;19.61;28.97
6853;BME280;3465;42.144;24.722;2024-03-17T13:23:15;99927.59;;;19.64;28.45
6853;BME280;3465;42.144;24.722;2024-03-17T13:25:40;99924.44;;;20.05;27.62
6853;BME280;3465;42.144;24.722;2024-03-17T13:28:09;99916.97;;;20.01;27.71
6853;BME280;3465;42.144;24.722;2024-03-17T13:30:35;99917.13;;;19.82;28.83
6853;BME280;3465;42.144;24.722;2024-03-17T13:33:05;99917.91;;;19.82;28.78
6853;BME280;3465;42.144;24.722;2024-03-17T13:35:34;99911.34;;;19.69;27.40
6853;BME280;3465;42.144;24.722;2024-03-17T13:38:03;99900.53;;;19.45;28.34